createdAt,value
2023-04-03T04:43:47.155Z,6.63
2023-04-03T04:46:14.416Z,6.63
2023-04-03T04:48:45.448Z,6.66
2023-04-03T04:51:13.692Z,6.66
2023-04-03T04:53:40.439Z,6.66
2023-04-03T04:56:07.886Z,6.65
2023-04-03T04:58:37.584Z,6.67
2023-04-03T05:01:05.884Z,6.66
2023-04-03T05:03:33.332Z,6.67
2023-04-03T05:06:00.162Z,6.70
2023-04-03T05:08:27.051Z,6.72
2023-04-03T05:10:55.627Z,6.77
2023-04-03T05:13:24.275Z,6.83
2023-04-03T05:15:51.090Z,6.87
2023-04-03T05:18:18.293Z,6.92
2023-04-03T05:20:45.230Z,6.98
2023-04-03T05:23:11.928Z,7.05
2023-04-03T05:25:39.791Z,7.11
2023-04-03T05:28:06.846Z,7.15
2023-04-03T05:30:33.747Z,7.20
2023-04-03T05:33:08.269Z,7.28
2023-04-03T05:35:44.447Z,7.34
2023-04-03T05:38:15.327Z,7.39
2023-04-03T05:40:44.807Z,7.42
2023-04-03T05:43:11.484Z,7.41
2023-04-03T05:45:46.762Z,7.39
2023-04-03T05:48:21.420Z,7.40
2023-04-03T05:50:49.058Z,7.42
2023-04-03T05:53:33.646Z,7.42
2023-04-03T05:56:27.774Z,7.41
2023-04-03T05:58:59.940Z,7.43
2023-04-03T06:01:26.828Z,7.47
2023-04-03T06:03:54.618Z,7.55
2023-04-03T06:06:22.505Z,7.65
2023-04-03T06:08:49.213Z,7.76
2023-04-03T06:11:16.085Z,7.84
2023-04-03T06:13:43.157Z,7.89
2023-04-03T06:16:12.338Z,7.92
2023-04-03T06:18:41.599Z,7.96
2023-04-03T06:21:08.315Z,8.01
2023-04-03T06:23:35.224Z,8.04
2023-04-03T06:26:02.408Z,8.06
2023-04-03T06:28:30.680Z,8.06
2023-04-03T06:30:57.699Z,8.06
2023-04-03T06:33:25.512Z,8.07
2023-04-03T06:35:56.728Z,8.10
2023-04-03T06:38:24.678Z,8.14
2023-04-03T06:40:52.219Z,8.18
2023-04-03T06:43:24.661Z,8.21
2023-04-03T06:45:51.442Z,8.22
2023-04-03T06:48:18.691Z,8.22
2023-04-03T06:50:46.177Z,8.19
2023-04-03T06:53:13.428Z,8.19
2023-04-03T06:55:40.415Z,8.18
2023-04-03T06:58:13.211Z,8.15
2023-04-03T07:00:40.261Z,8.13
2023-04-03T07:03:07.996Z,8.10
2023-04-03T07:05:35.532Z,8.08
2023-04-03T07:08:04.284Z,8.07
2023-04-03T07:10:32.116Z,8.05
2023-04-03T07:12:59.011Z,8.05
2023-04-03T07:15:26.461Z,8.06
2023-04-03T07:17:53.106Z,8.05
2023-04-03T07:20:20.218Z,8.04
2023-04-03T07:22:46.959Z,8.05
2023-04-03T07:25:13.620Z,8.08
2023-04-03T07:27:40.728Z,8.07
2023-04-03T07:30:09.674Z,8.10
2023-04-03T07:32:37.292Z,8.15
2023-04-03T07:35:06.160Z,8.18
2023-04-03T07:37:35.145Z,8.19
2023-04-03T07:40:04.677Z,8.16
2023-04-03T07:42:38.856Z,8.14
2023-04-03T07:45:07.065Z,8.12
2023-04-03T07:47:34.891Z,8.10
2023-04-03T07:50:08.760Z,8.13
2023-04-03T07:52:56.753Z,8.18
2023-04-03T07:55:27.497Z,8.24
2023-04-03T07:58:00.687Z,8.36
2023-04-03T08:00:30.420Z,8.47
2023-04-03T08:03:06.170Z,8.58
2023-04-03T08:05:37.822Z,8.65
2023-04-03T08:08:05.374Z,8.68
2023-04-03T08:10:32.356Z,8.68
2023-04-03T08:12:59.203Z,8.66
2023-04-03T08:15:32.170Z,8.64
2023-04-03T08:18:25.050Z,8.65
2023-04-03T08:20:52.163Z,8.69
2023-04-03T08:23:20.078Z,8.71
2023-04-03T08:25:48.092Z,8.71
2023-04-03T08:28:15.251Z,8.71
2023-04-03T08:30:42.937Z,8.71
2023-04-03T08:33:10.666Z,8.72
2023-04-03T08:35:41.893Z,8.73
2023-04-03T08:38:09.824Z,8.75
2023-04-03T08:40:37.071Z,8.78
2023-04-03T08:43:06.672Z,8.79
2023-04-03T08:45:43.805Z,8.80
2023-04-03T08:48:21.940Z,8.80
2023-04-03T08:50:53.138Z,8.84
2023-04-03T08:53:28.752Z,8.90
2023-04-03T08:55:55.484Z,8.97
2023-04-03T08:58:23.027Z,9.02
2023-04-03T09:01:02.060Z,9.11
2023-04-03T09:03:31.466Z,9.23
2023-04-03T09:06:06.405Z,9.34
2023-04-03T09:08:50.589Z,9.40
2023-04-03T09:11:24.110Z,9.42
2023-04-03T09:14:12.870Z,9.41
2023-04-03T09:16:40.275Z,9.41
2023-04-03T09:19:11.108Z,9.40
2023-04-03T09:21:44.318Z,9.38
2023-04-03T09:24:13.273Z,9.33
2023-04-03T09:26:53.203Z,9.31
2023-04-03T09:29:21.150Z,9.29
2023-04-03T09:31:49.458Z,9.28
2023-04-03T09:34:26.738Z,9.29
2023-04-03T09:36:54.252Z,9.35
2023-04-03T09:39:22.369Z,9.41
2023-04-03T09:41:56.558Z,9.48
2023-04-03T09:44:34.880Z,9.58
2023-04-03T09:47:17.882Z,9.74
2023-04-03T09:49:44.569Z,9.95
2023-04-03T09:52:20.865Z,10.04
2023-04-03T09:54:47.466Z,10.06
2023-04-03T09:57:18.265Z,10.06
2023-04-03T09:59:44.869Z,10.04
2023-04-03T10:02:11.449Z,10.02
2023-04-03T10:04:39.089Z,10.04
2023-04-03T10:07:25.825Z,10.12
2023-04-03T10:09:59.327Z,10.29
2023-04-03T10:12:26.269Z,10.44
2023-04-03T10:14:52.966Z,10.58
2023-04-03T10:17:37.864Z,10.69
2023-04-03T10:20:09.866Z,10.79
2023-04-03T10:22:36.698Z,10.88
2023-04-03T10:25:19.065Z,10.91
2023-04-03T10:27:45.777Z,10.84
2023-04-03T10:30:22.291Z,10.72
2023-04-03T10:32:52.943Z,10.50
2023-04-03T10:35:26.170Z,10.28
2023-04-03T10:38:11.658Z,10.09
2023-04-03T10:40:47.390Z,9.93
2023-04-03T10:43:14.361Z,9.82
2023-04-03T10:45:44.198Z,9.73
2023-04-03T10:48:30.246Z,9.66
2023-04-03T10:51:15.560Z,9.60
2023-04-03T10:53:42.597Z,9.55
2023-04-03T10:56:29.413Z,9.53
2023-04-03T10:59:14.174Z,9.50
2023-04-03T11:01:42.719Z,9.49
2023-04-03T11:04:10.824Z,9.47
2023-04-03T11:06:47.979Z,9.46
2023-04-03T11:09:27.275Z,9.48
2023-04-03T11:11:58.654Z,9.50
2023-04-03T11:14:30.506Z,9.51
2023-04-03T11:17:22.996Z,9.55
2023-04-03T11:19:53.285Z,9.61
2023-04-03T11:22:23.050Z,9.68
2023-04-03T11:25:12.373Z,9.75
2023-04-03T11:27:41.713Z,9.82
2023-04-03T11:30:18.141Z,9.84
2023-04-03T11:32:49.505Z,9.90
2023-04-03T11:35:16.221Z,9.94
2023-04-03T11:37:46.673Z,9.95
2023-04-03T11:40:16.684Z,9.96
2023-04-03T11:42:46.465Z,9.93
2023-04-03T11:45:21.846Z,9.88
2023-04-03T11:47:50.134Z,9.83
2023-04-03T11:50:31.999Z,9.80
2023-04-03T11:52:59.722Z,9.75
2023-04-03T11:55:32.003Z,9.73
2023-04-03T11:58:00.617Z,9.70
2023-04-03T12:00:52.025Z,9.68
2023-04-03T12:03:26.874Z,9.63
2023-04-03T12:06:03.194Z,9.62
2023-04-03T12:08:43.604Z,9.61
2023-04-03T12:11:10.639Z,9.60
2023-04-03T12:13:49.835Z,9.61
2023-04-03T12:16:29.069Z,9.63
2023-04-03T12:19:03.017Z,9.64
2023-04-03T12:21:29.857Z,9.63
2023-04-03T12:24:00.821Z,9.63
2023-04-03T12:26:49.015Z,9.62
2023-04-03T12:29:17.824Z,9.60
2023-04-03T12:32:03.269Z,9.59
2023-04-03T12:34:48.627Z,9.58
2023-04-03T12:37:24.137Z,9.56
